Time;durP1;ratioP1;P1;durP2;ratioP2;P2;SDS_P1;SDS_P2;PMS_P1;PMS_P2;Temp;Humidity;BMP_temperature;BMP_pressure;BME280_temperature;BME280_humidity;BME280_pressure;Samples;Min_cycle;Max_cycle;Signal;HPM_P1;HPM_P2
2022/08/05 00:00:44;;;;;;;5.50;4.70;;;;;;;20.87;66.63;99759.97;5028049;28;20513;-86
2022/08/05 00:03:09;;;;;;;5.30;4.80;;;;;;;20.89;66.32;99760.22;5028906;28;20052;-86
2022/08/05 00:05:35;;;;;;;6.68;4.72;;;;;;;20.90;65.59;99761.78;5029912;28;20120;-83
2022/08/05 00:08:03;;;;;;;7.28;4.70;;;;;;;20.85;65.22;99771.00;5029110;28;20449;-83
2022/08/05 00:10:28;;;;;;;5.03;4.53;;;;;;;20.79;64.93;99762.53;5021144;28;20155;-82
2022/08/05 00:12:54;;;;;;;5.53;4.90;;;;;;;20.74;66.14;99759.75;5029459;28;20431;-83
2022/08/05 00:15:19;;;;;;;5.93;4.93;;;;;;;20.70;65.51;99759.22;5029184;28;20042;-83
2022/08/05 00:17:45;;;;;;;6.22;4.63;;;;;;;20.63;65.71;99754.09;5029298;28;20557;-82
2022/08/05 00:20:10;;;;;;;6.00;4.90;;;;;;;20.60;66.39;99757.94;5029039;28;20041;-82
2022/08/05 00:22:36;;;;;;;5.65;4.80;;;;;;;20.46;67.80;99754.84;5029561;28;20188;-81
2022/08/05 00:25:02;;;;;;;5.55;4.78;;;;;;;20.39;68.56;99758.19;5028923;28;20085;-85
2022/08/05 00:27:29;;;;;;;5.78;4.72;;;;;;;20.39;68.17;99758.19;5029070;28;20061;-85
2022/08/05 00:29:55;;;;;;;7.38;4.57;;;;;;;20.46;67.59;99749.22;5020366;28;20612;-85
2022/08/05 00:32:20;;;;;;;5.65;4.82;;;;;;;20.52;67.57;99754.09;5029002;28;20049;-85
2022/08/05 00:34:46;;;;;;;5.20;4.70;;;;;;;20.52;68.60;99754.09;5029526;28;20136;-85
2022/08/05 00:37:11;;;;;;;6.55;4.88;;;;;;;20.52;67.43;99754.09;5012932;28;20038;-85
2022/08/05 00:39:37;;;;;;;5.38;4.90;;;;;;;20.32;69.41;99750.25;5026264;28;20417;-85
2022/08/05 00:42:02;;;;;;;5.57;4.95;;;;;;;20.33;68.95;99751.81;5021398;28;20041;-85
2022/08/05 00:44:28;;;;;;;5.50;5.00;;;;;;;20.33;67.93;99743.34;5026958;28;20034;-81
2022/08/05 00:46:54;;;;;;;5.53;4.90;;;;;;;20.31;69.18;99756.41;5031925;28;20048;-82
2022/08/05 00:49:19;;;;;;;10.32;4.90;;;;;;;20.23;69.83;99749.69;5051985;28;20460;-82
2022/08/05 00:51:45;;;;;;;5.78;4.43;;;;;;;20.25;68.39;99747.94;5039690;28;20515;-82
2022/08/05 00:54:14;;;;;;;6.00;4.82;;;;;;;20.32;67.50;99747.44;5038316;28;20049;-82
2022/08/05 00:56:39;;;;;;;6.82;5.28;;;;;;;20.24;67.59;99739.97;5033425;28;20037;-82
2022/08/05 00:59:05;;;;;;;6.10;4.97;;;;;;;20.14;67.38;99747.16;5046853;28;20454;-82
2022/08/05 01:01:31;;;;;;;4.85;4.40;;;;;;;20.23;66.24;99739.19;5047857;28;20538;-81
2022/08/05 01:03:56;;;;;;;5.40;4.50;;;;;;;20.23;65.95;99742.03;5032945;28;20045;-84
2022/08/05 01:06:22;;;;;;;6.65;4.90;;;;;;;20.21;66.21;99741.78;5030589;28;20435;-85
2022/08/05 01:08:48;;;;;;;9.93;5.25;;;;;;;20.15;67.87;99746.63;5031253;28;20045;-85
2022/08/05 01:11:32;;;;;;;7.43;4.63;;;;;;;20.11;68.67;99754.53;5031440;28;20481;-85
2022/08/05 01:14:03;;;;;;;6.90;5.07;;;;;;;20.06;69.84;99748.94;5029074;28;20127;-85
2022/08/05 01:16:47;;;;;;;6.72;4.95;;;;;;;20.08;69.49;99749.16;5031879;28;20037;-85
2022/08/05 01:19:25;;;;;;;5.20;4.70;;;;;;;20.03;69.50;99742.25;5031664;28;20431;-85
2022/08/05 01:22:01;;;;;;;5.28;4.78;;;;;;;20.06;69.04;99740.47;5030178;28;20120;-82
2022/08/05 01:24:32;;;;;;;5.90;4.97;;;;;;;20.03;69.71;99747.88;5031771;28;20266;-82
2022/08/05 01:27:39;;;;;;;5.57;5.03;;;;;;;19.93;69.75;99743.78;5031086;28;20037;-82
2022/08/05 01:30:05;;;;;;;5.53;4.90;;;;;;;19.89;70.47;99749.66;5018152;28;20053;-82
2022/08/05 01:32:32;;;;;;;7.15;5.10;;;;;;;19.77;71.45;99744.50;5036810;28;20033;-82
2022/08/05 01:35:00;;;;;;;5.30;4.80;;;;;;;19.71;72.49;99744.47;5035308;28;20038;-82
2022/08/05 01:37:48;;;;;;;6.03;5.15;;;;;;;19.63;72.38;99749.06;5046039;28;20474;-82
2022/08/05 01:40:16;;;;;;;5.88;4.90;;;;;;;19.65;72.11;99752.16;5045571;28;20549;-85
2022/08/05 01:42:43;;;;;;;5.72;4.97;;;;;;;19.62;72.96;99752.34;5030215;28;20042;-85
2022/08/05 01:45:09;;;;;;;5.57;4.93;;;;;;;19.64;71.87;99747.78;5031608;28;20099;-85
2022/08/05 01:47:36;;;;;;;6.20;5.28;;;;;;;19.63;71.88;99743.44;5030935;28;20041;-85
2022/08/05 01:50:03;;;;;;;6.38;5.50;;;;;;;19.54;73.54;99730.34;5029994;28;20052;-85
2022/08/05 01:52:30;;;;;;;5.80;5.00;;;;;;;19.56;73.06;99738.28;5031575;28;20107;-85
2022/08/05 01:54:58;;;;;;;6.28;5.40;;;;;;;19.46;74.44;99739.78;5026253;28;20046;-85
2022/08/05 01:57:27;;;;;;;5.70;5.20;;;;;;;19.41;74.46;99748.94;5034380;28;20494;-84
2022/08/05 01:59:58;;;;;;;6.22;5.32;;;;;;;19.34;75.16;99738.16;5042807;28;20042;-82
2022/08/05 02:02:24;;;;;;;5.95;5.13;;;;;;;19.28;75.68;99735.34;5018267;28;20046;-82
2022/08/05 02:04:51;;;;;;;9.60;5.60;;;;;;;19.26;75.41;99740.69;5047197;28;20545;-82
2022/08/05 02:07:16;;;;;;;5.40;4.90;;;;;;;19.31;74.07;99739.94;5032158;28;20238;-82
2022/08/05 02:09:43;;;;;;;5.68;5.05;;;;;;;19.29;74.79;99739.66;5053250;28;20529;-82
2022/08/05 02:12:24;;;;;;;5.80;5.13;;;;;;;19.33;73.72;99736.63;5030074;28;20041;-82
2022/08/05 02:15:00;;;;;;;6.70;5.15;;;;;;;19.29;73.23;99728.41;5039560;28;20558;-82
2022/08/05 02:17:32;;;;;;;5.53;4.88;;;;;;;19.30;73.83;99726.38;5030022;28;20429;-82
2022/08/05 02:20:05;;;;;;;5.72;4.90;;;;;;;19.19;75.52;99721.47;5028226;28;20586;-86
2022/08/05 02:22:35;;;;;;;6.03;5.40;;;;;;;19.14;76.03;99730.66;5029792;28;20052;-86
2022/08/05 02:25:08;;;;;;;6.25;5.43;;;;;;;19.04;77.27;99732.16;5026051;28;20041;-86
2022/08/05 02:27:36;;;;;;;5.60;5.10;;;;;;;19.05;76.86;99722.41;5024565;28;20377;-86
2022/08/05 02:30:02;;;;;;;5.72;5.13;;;;;;;19.06;76.90;99729.59;5014721;28;20076;-86
2022/08/05 02:32:30;;;;;;;5.70;5.10;;;;;;;18.96;77.13;99722.63;5029343;28;20044;-86
2022/08/05 02:35:02;;;;;;;6.28;5.15;;;;;;;18.99;76.05;99719.59;5033112;28;20045;-85
2022/08/05 02:37:30;;;;;;;5.72;5.13;;;;;;;18.97;75.74;99724.16;5043080;28;20049;-83
2022/08/05 02:39:55;;;;;;;5.90;5.15;;;;;;;18.96;75.80;99720.59;5028785;28;20460;-82
2022/08/05 02:42:21;;;;;;;6.82;5.45;;;;;;;18.96;75.92;99722.63;5028845;28;20033;-82
2022/08/05 02:44:47;;;;;;;5.30;4.80;;;;;;;18.94;75.44;99727.97;5029173;28;20045;-82
2022/08/05 02:47:13;;;;;;;6.07;5.43;;;;;;;18.96;75.77;99719.84;5026742;28;20041;-82
2022/08/05 02:49:43;;;;;;;7.25;5.28;;;;;;;18.99;75.58;99725.22;5030201;28;20100;-83
2022/08/05 02:52:13;;;;;;;6.60;5.28;;;;;;;19.02;75.47;99729.06;5029076;28;20088;-83
2022/08/05 02:54:39;;;;;;;7.05;5.30;;;;;;;18.93;75.56;99709.56;5030290;28;20046;-83
2022/08/05 02:57:07;;;;;;;6.00;5.25;;;;;;;18.92;75.09;99716.47;5029880;28;20045;-86
2022/08/05 02:59:33;;;;;;;7.25;5.50;;;;;;;18.84;75.79;99713.38;5028524;28;20056;-87
2022/08/05 03:02:00;;;;;;;6.10;5.50;;;;;;;18.83;75.19;99722.28;5026210;28;20038;-86
2022/08/05 03:04:26;;;;;;;6.18;5.20;;;;;;;18.69;77.58;99723.97;5029243;28;20053;-87
2022/08/05 03:06:51;;;;;;;6.60;5.32;;;;;;;18.66;77.10;99712.97;5028504;28;20033;-87
2022/08/05 03:09:17;;;;;;;7.53;5.38;;;;;;;18.63;77.51;99715.53;5028511;28;20105;-86
2022/08/05 03:11:42;;;;;;;6.95;5.53;;;;;;;18.70;78.23;99719.91;5029210;28;20124;-87
2022/08/05 03:14:08;;;;;;;6.47;5.53;;;;;;;18.70;77.83;99719.13;5029174;28;20038;-86
2022/08/05 03:16:34;;;;;;;6.05;5.45;;;;;;;18.72;76.81;99719.41;5028768;28;20046;-83
2022/08/05 03:19:00;;;;;;;5.95;5.20;;;;;;;18.64;78.48;99716.31;5029472;28;20460;-83
2022/08/05 03:21:25;;;;;;;6.07;5.47;;;;;;;18.66;77.34;99719.38;5030788;28;20046;-83
2022/08/05 03:23:51;;;;;;;5.78;4.90;;;;;;;18.60;77.80;99719.31;5031956;28;20090;-83
2022/08/05 03:26:16;;;;;;;6.30;5.35;;;;;;;18.50;78.30;99720.75;5029652;28;20052;-83
2022/08/05 03:28:42;;;;;;;7.10;5.13;;;;;;;18.48;77.67;99712.06;5018082;28;20068;-83
2022/08/05 03:31:07;;;;;;;6.00;5.40;;;;;;;18.48;77.49;99720.47;5029473;28;20092;-84
2022/08/05 03:33:33;;;;;;;7.50;5.38;;;;;;;18.46;77.74;99720.22;5025302;28;20042;-84
2022/08/05 03:35:59;;;;;;;6.00;5.40;;;;;;;18.42;78.19;99722.50;5027950;28;20087;-87
2022/08/05 03:38:25;;;;;;;7.25;5.70;;;;;;;18.38;79.73;99709.94;5029437;28;20492;-85
2022/08/05 03:40:54;;;;;;;6.85;5.53;;;;;;;18.39;79.36;99723.50;5027881;28;20406;-87
2022/08/05 03:43:23;;;;;;;7.88;5.70;;;;;;;18.39;80.14;99717.88;5029258;28;20046;-86
2022/08/05 03:45:49;;;;;;;5.85;5.25;;;;;;;18.42;80.61;99721.72;5044024;28;20146;-86
2022/08/05 03:48:14;;;;;;;6.95;5.65;;;;;;;18.44;80.75;99722.00;5043958;28;20076;-86
2022/08/05 03:50:47;;;;;;;8.68;5.38;;;;;;;18.45;80.39;99720.72;5028826;28;20106;-86
2022/08/05 03:53:20;;;;;;;9.77;6.50;;;;;;;18.46;79.70;99720.22;5019467;28;20068;-86
2022/08/05 03:55:52;;;;;;;8.68;6.40;;;;;;;18.46;81.07;99728.66;5012023;28;20045;-82
2022/08/05 03:58:18;;;;;;;8.80;7.15;;;;;;;18.46;80.39;99728.66;5010754;28;20463;-82
2022/08/05 04:00:44;;;;;;;8.00;6.55;;;;;;;18.36;81.02;99729.34;5046870;28;20444;-82
2022/08/05 04:03:10;;;;;;;7.32;6.53;;;;;;;18.40;80.10;99725.00;5041328;28;20077;-82
2022/08/05 04:05:37;;;;;;;8.48;5.93;;;;;;;18.42;79.52;99725.28;5028188;28;20418;-83
2022/08/05 04:08:06;;;;;;;6.75;5.88;;;;;;;18.42;79.71;99722.50;5027644;28;20029;-82
2022/08/05 04:10:32;;;;;;;5.95;5.35;;;;;;;18.47;79.67;99724.56;5038955;28;20084;-83
2022/08/05 04:12:58;;;;;;;7.68;6.68;;;;;;;18.45;80.54;99724.28;5027106;28;20046;-86
2022/08/05 04:15:25;;;;;;;8.82;6.15;;;;;;;18.46;80.71;99725.06;5027351;28;20392;-86
2022/08/05 04:17:50;;;;;;;10.15;6.20;;;;;;;18.54;80.85;99729.75;5028370;28;20041;-87
2022/08/05 04:20:18;;;;;;;7.13;6.30;;;;;;;18.58;79.98;99716.25;5050895;28;20047;-87
2022/08/05 04:22:43;;;;;;;9.40;6.20;;;;;;;18.62;81.01;99719.59;5036193;28;20418;-87
2022/08/05 04:25:09;;;;;;;8.30;6.30;;;;;;;18.67;80.38;99720.16;5032351;28;20091;-87
2022/08/05 04:27:34;;;;;;;11.18;6.30;;;;;;;18.69;80.38;99723.22;5032890;28;20046;-86
2022/08/05 04:30:00;;;;;;;8.65;6.38;;;;;;;18.73;82.01;99724.53;5033760;28;20034;-87
2022/08/05 04:32:25;;;;;;;8.30;6.40;;;;;;;18.77;81.25;99718.66;5048819;28;20038;-83
2022/08/05 04:34:51;;;;;;;9.77;6.70;;;;;;;18.82;81.73;99712.31;5031873;28;20144;-83
2022/08/05 04:37:16;;;;;;;9.68;6.28;;;;;;;18.84;82.34;99712.59;5032989;28;20051;-83
2022/08/05 04:39:42;;;;;;;7.03;6.32;;;;;;;18.86;82.11;99707.22;5029109;28;20038;-83
2022/08/05 04:42:08;;;;;;;8.27;6.40;;;;;;;18.94;81.64;99711.13;5031893;28;20443;-83
2022/08/05 04:44:33;;;;;;;8.38;6.10;;;;;;;18.99;81.09;99710.38;5031396;28;20191;-83
2022/08/05 04:46:59;;;;;;;8.85;6.47;;;;;;;19.04;82.63;99709.66;5030606;28;20483;-83
2022/08/05 04:49:26;;;;;;;7.43;6.45;;;;;;;19.12;82.01;99701.50;5030685;28;20057;-83
2022/08/05 04:51:51;;;;;;;10.77;6.45;;;;;;;19.21;80.59;99702.06;5026299;28;20087;-87
2022/08/05 04:54:18;;;;;;;7.05;6.30;;;;;;;19.34;81.03;99722.06;5046149;28;20418;-87
2022/08/05 04:56:44;;;;;;;9.13;7.50;;;;;;;19.46;84.93;99712.41;5032267;28;20038;-88
2022/08/05 04:59:10;;;;;;;10.48;7.22;;;;;;;19.64;87.05;99710.44;5032505;28;20514;-88
2022/08/05 05:01:36;;;;;;;10.40;7.70;;;;;;;19.79;86.76;99719.41;5030731;28;20136;-87
2022/08/05 05:04:01;;;;;;;8.73;7.43;;;;;;;19.93;89.88;99707.97;5046636;28;20129;-88
2022/08/05 05:06:27;;;;;;;9.52;8.52;;;;;;;20.07;94.13;99708.97;5031525;28;20490;-88
2022/08/05 05:08:52;;;;;;;9.05;8.15;;;;;;;20.22;96.17;99715.13;5032351;28;20506;-87
2022/08/05 05:11:18;;;;;;;9.38;8.43;;;;;;;20.36;97.45;99707.75;5029402;28;20518;-83
2022/08/05 05:13:43;;;;;;;8.80;7.93;;;;;;;20.46;96.34;99706.97;5029713;28;20207;-83
2022/08/05 05:16:09;;;;;;;9.20;8.30;;;;;;;20.62;95.76;99704.66;5029706;28;20132;-83
2022/08/05 05:18:35;;;;;;;8.30;7.47;;;;;;;20.82;94.41;99722.06;5032834;28;20116;-83
2022/08/05 05:21:02;;;;;;;9.77;7.65;;;;;;;21.01;93.90;99716.63;5032612;28;20033;-81
2022/08/05 05:23:27;;;;;;;8.52;7.72;;;;;;;21.17;92.27;99717.91;5033010;28;20498;-81
2022/08/05 05:25:53;;;;;;;8.95;7.65;;;;;;;21.43;92.52;99718.31;5031656;28;20052;-83
2022/08/05 05:28:18;;;;;;;10.68;8.13;;;;;;;21.68;91.16;99722.03;5032326;28;20056;-81
2022/08/05 05:30:45;;;;;;;10.02;7.90;;;;;;;21.96;89.48;99714.19;5032433;28;20069;-86
2022/08/05 05:33:11;;;;;;;12.45;7.68;;;;;;;22.21;87.79;99723.53;5031381;28;20038;-86
2022/08/05 05:35:36;;;;;;;10.27;7.50;;;;;;;22.48;86.88;99719.72;5032568;28;20053;-87
2022/08/05 05:38:03;;;;;;;9.48;7.97;;;;;;;22.69;85.24;99725.72;5032338;28;20235;-86
2022/08/05 05:40:29;;;;;;;8.50;7.65;;;;;;;22.95;84.67;99719.56;5032641;28;20053;-87
2022/08/05 05:42:55;;;;;;;8.88;7.70;;;;;;;23.06;83.68;99717.38;5013238;28;20038;-86
2022/08/05 05:45:21;;;;;;;10.10;7.93;;;;;;;23.24;82.39;99722.31;5027562;28;20038;-87
2022/08/05 05:47:47;;;;;;;10.80;8.15;;;;;;;23.35;82.53;99714.97;5046047;28;20095;-81
2022/08/05 05:50:14;;;;;;;8.68;7.88;;;;;;;23.56;81.68;99730.19;5035690;28;20042;-81
2022/08/05 05:52:40;;;;;;;12.13;8.10;;;;;;;23.73;81.07;99715.81;5029093;28;20413;-81
2022/08/05 05:55:08;;;;;;;9.23;8.02;;;;;;;23.98;78.52;99720.84;5029450;28;20053;-81
2022/08/05 05:57:34;;;;;;;8.45;7.57;;;;;;;24.12;76.29;99719.63;5031943;28;20038;-81
2022/08/05 06:00:00;;;;;;;11.10;7.55;;;;;;;24.23;75.23;99718.69;5029020;28;20053;-81
2022/08/05 06:02:25;;;;;;;13.50;8.57;;;;;;;24.52;73.74;99716.94;5030609;28;20045;-81
2022/08/05 06:04:51;;;;;;;11.35;9.45;;;;;;;24.79;71.12;99712.84;5030670;28;20045;-86
2022/08/05 06:07:16;;;;;;;8.98;7.45;;;;;;;24.99;67.87;99720.75;5030423;28;20679;-81
2022/08/05 06:09:42;;;;;;;8.98;7.30;;;;;;;25.04;67.34;99722.72;5029228;28;20498;-81
2022/08/05 06:12:07;;;;;;;7.07;6.38;;;;;;;25.17;65.65;99732.56;5029605;28;20033;-81
2022/08/05 06:14:33;;;;;;;7.85;7.05;;;;;;;25.35;65.56;99717.50;5028929;28;20042;-81
2022/08/05 06:16:59;;;;;;;10.10;6.88;;;;;;;25.59;64.57;99725.78;5027070;28;20041;-81
2022/08/05 06:19:25;;;;;;;12.20;7.07;;;;;;;25.79;64.50;99722.25;5029540;28;20037;-81
2022/08/05 06:21:51;;;;;;;8.45;7.03;;;;;;;25.90;63.69;99727.69;5030314;28;20039;-80
2022/08/05 06:24:16;;;;;;;11.98;6.72;;;;;;;25.55;65.72;99724.59;5030124;28;20045;-81
2022/08/05 06:26:42;;;;;;;8.40;6.80;;;;;;;25.80;64.53;99718.06;5032126;28;20517;-86
2022/08/05 06:29:07;;;;;;;9.48;6.80;;;;;;;26.14;63.83;99723.75;5036652;28;20041;-86
2022/08/05 06:31:33;;;;;;;7.13;6.43;;;;;;;26.50;62.99;99726.78;5030413;28;20479;-86
2022/08/05 06:33:58;;;;;;;11.45;7.30;;;;;;;26.90;61.37;99725.25;5029501;28;20029;-87
2022/08/05 06:36:26;;;;;;;8.57;7.00;;;;;;;26.99;60.46;99728.91;5029412;28;20033;-87
2022/08/05 06:38:53;;;;;;;7.55;6.57;;;;;;;26.89;60.75;99723.72;5029288;28;20042;-86
2022/08/05 06:41:22;;;;;;;10.88;6.75;;;;;;;26.90;60.86;99719.56;5028978;28;20037;-87
2022/08/05 06:43:48;;;;;;;9.88;7.28;;;;;;;27.12;59.50;99723.13;5027024;28;20041;-81
2022/08/05 06:46:15;;;;;;;8.32;6.20;;;;;;;27.16;58.59;99726.38;5028362;28;20367;-86
2022/08/05 06:48:40;;;;;;;6.88;6.28;;;;;;;27.48;58.72;99723.94;5027946;28;20399;-89
2022/08/05 06:51:12;;;;;;;10.23;6.82;;;;;;;27.65;57.85;99732.75;5029349;28;20045;-88
2022/08/05 06:53:38;;;;;;;7.63;6.40;;;;;;;27.78;56.50;99731.88;5009091;28;20034;-87
2022/08/05 06:56:06;;;;;;;8.40;5.95;;;;;;;27.73;55.41;99722.16;5028133;28;20487;-87
2022/08/05 06:58:32;;;;;;;6.50;5.70;;;;;;;27.82;51.83;99726.56;5042674;28;20052;-87
2022/08/05 07:00:59;;;;;;;7.15;6.47;;;;;;;28.06;51.80;99726.06;5009978;28;20053;-86
2022/08/05 07:03:25;;;;;;;7.07;6.43;;;;;;;28.20;53.51;99715.28;5012526;28;20487;-86
2022/08/05 07:05:51;;;;;;;9.85;6.20;;;;;;;28.25;54.23;99722.91;5028958;28;20049;-82
2022/08/05 07:08:16;;;;;;;6.47;5.80;;;;;;;28.38;49.84;99719.88;5025820;28;20118;-82
2022/08/05 07:10:42;;;;;;;6.28;5.68;;;;;;;28.49;48.52;99719.50;5028473;28;20045;-83
2022/08/05 07:18:35;;;;;;;8.18;5.53;;;;;;;29.17;47.00;99715.84;5028655;28;20057;-82
2022/08/05 07:21:01;;;;;;;8.13;5.82;;;;;;;29.16;46.43;99717.19;5028373;28;20156;-83
2022/08/05 07:23:27;;;;;;;6.15;5.60;;;;;;;29.42;47.04;99722.50;5026790;28;20114;-86
2022/08/05 07:25:52;;;;;;;6.47;5.30;;;;;;;29.43;47.00;99712.59;5028730;28;20041;-87
2022/08/05 07:28:18;;;;;;;7.90;5.40;;;;;;;29.70;44.16;99717.81;5028084;28;20461;-87
2022/08/05 07:30:44;;;;;;;6.00;5.35;;;;;;;29.93;44.32;99715.63;5028504;28;20120;-88
2022/08/05 07:33:11;;;;;;;6.43;5.60;;;;;;;29.99;43.73;99719.03;5027752;28;20205;-88
2022/08/05 07:35:37;;;;;;;9.88;5.57;;;;;;;29.58;44.37;99720.34;5029021;28;20082;-88
2022/08/05 07:38:03;;;;;;;5.32;4.90;;;;;;;29.89;44.63;99723.84;5028035;28;20102;-88
2022/08/05 07:40:29;;;;;;;7.20;5.40;;;;;;;30.33;43.76;99715.59;5029132;28;20522;-88
2022/08/05 07:42:54;;;;;;;10.98;5.20;;;;;;;30.13;41.64;99711.69;5029497;28;20451;-84
2022/08/05 07:45:20;;;;;;;6.53;4.78;;;;;;;29.99;42.48;99716.19;5030439;28;20121;-83
2022/08/05 07:47:45;;;;;;;5.65;4.80;;;;;;;29.98;43.65;99717.50;5030434;28;20482;-83
2022/08/05 07:50:11;;;;;;;7.93;5.30;;;;;;;30.16;42.97;99713.41;5030349;28;20487;-83
2022/08/05 07:52:42;;;;;;;5.82;4.80;;;;;;;30.37;43.74;99716.69;5029796;28;20490;-83
2022/08/05 07:55:08;;;;;;;5.70;5.20;;;;;;;30.84;43.19;99715.78;5030182;28;20045;-84
2022/08/05 07:57:34;;;;;;;6.38;4.78;;;;;;;30.88;42.63;99713.25;5030515;28;20075;-83
2022/08/05 08:00:00;;;;;;;6.40;5.03;;;;;;;31.00;42.72;99722.16;5030010;28;20045;-83
2022/08/05 08:02:27;;;;;;;5.47;4.88;;;;;;;30.95;41.73;99723.13;5030086;28;20050;-83
2022/08/05 08:04:53;;;;;;;6.47;4.85;;;;;;;30.78;42.53;99709.53;5029137;28;20097;-84
2022/08/05 08:07:19;;;;;;;8.80;5.35;;;;;;;31.13;40.67;99715.34;5028299;28;20048;-84
2022/08/05 08:09:46;;;;;;;7.13;5.00;;;;;;;31.21;39.72;99722.50;5029147;28;20100;-84
2022/08/05 08:12:14;;;;;;;6.72;4.78;;;;;;;31.23;41.31;99719.81;5029884;28;20040;-84
2022/08/05 08:14:43;;;;;;;7.35;4.90;;;;;;;31.48;39.72;99726.22;5030214;28;20041;-84
2022/08/05 08:17:11;;;;;;;5.07;4.60;;;;;;;31.67;41.10;99722.00;5030106;28;20064;-84
2022/08/05 08:19:37;;;;;;;6.03;4.65;;;;;;;31.81;39.30;99720.31;5029202;28;20120;-84
2022/08/05 08:22:03;;;;;;;5.55;4.53;;;;;;;31.81;38.32;99714.56;5028448;28;20137;-88
2022/08/05 08:24:30;;;;;;;6.55;4.90;;;;;;;31.84;38.89;99719.09;5029390;28;20052;-88
2022/08/05 08:26:55;;;;;;;7.60;4.80;;;;;;;31.81;38.98;99705.97;5028398;28;20036;-88
2022/08/05 08:29:21;;;;;;;7.45;4.55;;;;;;;31.80;40.13;99718.78;5029118;28;20045;-88
2022/08/05 08:31:47;;;;;;;4.43;3.90;;;;;;;31.87;38.05;99724.41;5029514;28;20026;-88
2022/08/05 08:34:13;;;;;;;4.95;4.38;;;;;;;31.96;39.33;99717.22;5028370;28;20076;-88
2022/08/05 08:36:39;;;;;;;7.32;4.50;;;;;;;32.28;38.46;99716.97;5026758;28;20188;-88
2022/08/05 08:39:04;;;;;;;7.78;4.25;;;;;;;32.38;37.42;99723.53;5028580;28;20491;-88
2022/08/05 08:41:32;;;;;;;4.60;4.03;;;;;;;32.46;35.71;99711.16;5027610;28;20041;-84
2022/08/05 08:43:58;;;;;;;4.60;3.88;;;;;;;32.37;35.93;99719.13;5026578;28;20050;-84
2022/08/05 08:46:27;;;;;;;5.78;4.30;;;;;;;31.93;36.40;99727.03;5028488;28;20072;-83
2022/08/05 08:48:54;;;;;;;4.30;3.88;;;;;;;32.10;35.74;99718.41;5027969;28;20037;-84
2022/08/05 08:51:19;;;;;;;9.75;4.30;;;;;;;32.51;35.34;99725.25;5029034;28;20045;-84
2022/08/05 08:53:45;;;;;;;5.85;4.30;;;;;;;32.72;33.91;99701.75;5028330;28;20052;-84
2022/08/05 08:56:11;;;;;;;5.75;4.07;;;;;;;32.67;34.71;99717.19;5028614;28;20049;-84
2022/08/05 08:58:36;;;;;;;4.93;4.00;;;;;;;32.60;34.28;99707.28;5016745;28;20429;-88
2022/08/05 09:01:02;;;;;;;6.68;4.10;;;;;;;32.81;34.64;99701.03;5044579;28;20038;-88
2022/08/05 09:03:27;;;;;;;6.57;4.07;;;;;;;33.08;35.08;99701.66;5027122;28;20041;-88
2022/08/05 09:05:53;;;;;;;5.32;3.85;;;;;;;33.13;32.65;99699.91;5044607;28;20490;-88
2022/08/05 09:08:21;;;;;;;4.20;3.78;;;;;;;33.05;32.81;99705.00;5032572;28;20414;-88
2022/08/05 09:10:47;;;;;;;5.50;3.80;;;;;;;33.02;33.09;99701.22;5033080;28;20426;-89
2022/08/05 09:13:13;;;;;;;4.53;4.13;;;;;;;32.95;34.41;99707.13;5032921;28;20048;-88
2022/08/05 09:15:39;;;;;;;8.60;4.32;;;;;;;33.31;34.95;99704.16;5031393;28;20487;-88
2022/08/05 09:18:08;;;;;;;7.13;3.70;;;;;;;33.51;33.98;99690.53;5048146;28;20049;-84
2022/08/05 09:20:33;;;;;;;10.20;4.82;;;;;;;33.66;34.03;99698.88;5032426;28;20037;-84
2022/08/05 09:23:14;;;;;;;6.78;3.88;;;;;;;33.94;33.40;99700.19;5031396;28;20112;-84
2022/08/05 09:25:41;;;;;;;4.93;3.97;;;;;;;34.40;32.31;99699.91;5032332;28;20049;-84
2022/08/05 09:28:13;;;;;;;5.07;3.80;;;;;;;34.51;31.39;99697.13;5032632;28;20049;-84
2022/08/05 09:31:03;;;;;;;4.05;3.53;;;;;;;34.62;30.00;99687.06;5032964;28;20131;-84
2022/08/05 09:33:29;;;;;;;4.30;3.70;;;;;;;34.80;29.65;99684.72;5032364;28;20038;-84
2022/08/05 09:36:03;;;;;;;4.28;3.80;;;;;;;34.86;29.93;99683.00;5029609;28;20495;-89
2022/08/05 09:38:29;;;;;;;7.47;3.80;;;;;;;34.36;30.86;99680.22;5029533;28;20045;-84
2022/08/05 09:41:03;;;;;;;4.82;3.70;;;;;;;34.51;31.38;99679.09;5034131;28;20106;-81
2022/08/05 09:43:34;;;;;;;7.22;3.75;;;;;;;34.32;28.90;99679.19;5044565;28;20041;-82
2022/08/05 09:46:01;;;;;;;6.07;3.97;;;;;;;34.54;29.07;99680.75;5026897;28;21191;-82
2022/08/05 09:48:31;;;;;;;5.28;3.78;;;;;;;34.70;29.79;99676.13;5031208;28;20038;-82
2022/08/05 09:51:07;;;;;;;5.35;3.45;;;;;;;34.93;28.60;99676.31;5031355;28;20042;-82
2022/08/05 09:53:49;;;;;;;4.68;3.60;;;;;;;34.89;30.16;99675.28;5038301;28;20426;-82
2022/08/05 09:56:25;;;;;;;5.63;3.60;;;;;;;35.01;28.43;99671.09;5033117;28;20033;-89
2022/08/05 09:59:02;;;;;;;5.38;3.38;;;;;;;35.32;29.53;99661.59;5050154;28;20048;-88
2022/08/05 10:01:32;;;;;;;5.20;3.50;;;;;;;35.67;27.24;99674.06;5048122;28;20041;-88
2022/08/05 10:04:04;;;;;;;5.13;3.60;;;;;;;34.55;28.20;99671.50;5032821;28;20076;-89
2022/08/05 10:06:30;;;;;;;6.10;3.67;;;;;;;34.65;27.75;99668.59;5031066;28;20486;-88
2022/08/05 10:09:17;;;;;;;4.00;3.60;;;;;;;34.99;27.85;99665.19;5031944;28;20049;-89
2022/08/05 10:11:44;;;;;;;3.42;3.13;;;;;;;35.52;24.97;99657.94;5032000;28;20056;-89
2022/08/05 10:14:30;;;;;;;4.95;3.20;;;;;;;35.52;25.98;99657.16;5031811;28;20040;-84
2022/08/05 10:16:57;;;;;;;6.00;3.38;;;;;;;35.68;25.38;99658.25;5030867;28;20494;-89
2022/08/05 10:19:24;;;;;;;3.67;3.28;;;;;;;36.01;24.21;99647.41;5030355;28;20555;-89
2022/08/05 10:21:50;;;;;;;6.25;3.60;;;;;;;36.10;25.24;99648.72;5031877;28;20557;-89
2022/08/05 10:24:19;;;;;;;4.45;3.20;;;;;;;36.35;24.56;99645.22;5031627;28;20045;-89
2022/08/05 10:26:47;;;;;;;5.57;3.42;;;;;;;36.43;25.70;99637.81;5031684;28;20554;-86
2022/08/05 10:29:13;;;;;;;4.65;3.38;;;;;;;36.28;24.64;99640.41;5030051;28;20041;-87
2022/08/05 10:31:38;;;;;;;5.45;3.08;;;;;;;36.03;23.89;99634.50;5026312;28;20048;-87
2022/08/05 10:34:08;;;;;;;3.40;3.00;;;;;;;36.26;23.41;99643.19;5024678;28;20507;-81
2022/08/05 10:36:35;;;;;;;4.00;2.90;;;;;;;36.05;22.55;99640.38;5029610;28;20038;-81
2022/08/05 10:39:19;;;;;;;3.67;2.83;;;;;;;36.12;22.21;99633.63;5029989;28;20102;-81
2022/08/05 10:41:52;;;;;;;3.40;3.00;;;;;;;35.85;23.76;99634.09;5027961;28;20100;-82
2022/08/05 10:44:19;;;;;;;3.17;2.65;;;;;;;35.33;22.68;99619.88;5027144;28;20494;-81
2022/08/05 10:46:52;;;;;;;4.50;2.78;;;;;;;35.65;22.24;99633.53;5028757;28;20036;-81
2022/08/05 10:49:18;;;;;;;3.45;2.90;;;;;;;35.80;22.60;99632.31;5029509;28;20050;-82
2022/08/05 10:51:49;;;;;;;4.82;3.10;;;;;;;35.81;21.83;99623.03;5029480;28;20096;-83
2022/08/05 10:54:16;;;;;;;4.10;2.80;;;;;;;35.62;20.73;99622.47;5028068;28;20046;-88
2022/08/05 10:56:52;;;;;;;3.90;2.70;;;;;;;35.47;21.64;99623.66;5031563;28;20047;-87
2022/08/05 10:59:28;;;;;;;5.20;2.70;;;;;;;35.35;21.12;99617.09;5026534;28;20068;-87
2022/08/05 11:02:10;;;;;;;6.22;2.70;;;;;;;35.41;22.96;99615.38;5019380;28;20041;-87
2022/08/05 11:04:43;;;;;;;3.40;2.90;;;;;;;35.42;23.13;99613.25;5029307;28;20427;-87
2022/08/05 11:07:11;;;;;;;3.10;2.80;;;;;;;35.55;22.32;99618.44;5029445;28;20084;-86
2022/08/05 11:09:50;;;;;;;3.30;3.00;;;;;;;35.93;22.66;99623.06;5030209;28;20112;-88
2022/08/05 11:12:25;;;;;;;3.30;2.95;;;;;;;36.15;23.02;99615.06;5027245;28;20659;-83
2022/08/05 11:15:08;;;;;;;5.63;3.10;;;;;;;36.03;23.10;99614.28;5030951;28;20037;-83
2022/08/05 11:17:37;;;;;;;3.72;2.88;;;;;;;35.95;23.15;99620.31;5030722;28;20179;-83
2022/08/05 11:20:08;;;;;;;3.38;2.60;;;;;;;36.01;22.29;99612.78;5030507;28;20044;-83
2022/08/05 11:22:43;;;;;;;3.15;2.85;;;;;;;36.27;21.96;99610.06;5029992;28;20049;-83
2022/08/05 11:25:28;;;;;;;5.75;3.15;;;;;;;36.40;22.46;99609.41;5030194;28;20050;-82
2022/08/05 11:27:55;;;;;;;5.32;2.75;;;;;;;36.53;21.57;99608.75;5030236;28;20046;-83
2022/08/05 11:30:20;;;;;;;6.97;2.90;;;;;;;36.34;22.01;99600.38;5030632;28;20037;-88
2022/08/05 11:32:46;;;;;;;4.15;2.47;;;;;;;36.47;21.92;99599.75;5030901;28;20064;-83
2022/08/05 11:35:49;;;;;;;3.13;2.72;;;;;;;36.38;21.96;99615.06;5029106;28;20415;-83
2022/08/05 11:38:15;;;;;;;6.53;2.60;;;;;;;36.42;21.29;99600.88;5011609;28;20045;-83
2022/08/05 11:40:57;;;;;;;4.05;2.67;;;;;;;36.30;20.70;99609.53;5010529;28;20053;-83